Time;durP1;ratioP1;P1;durP2;ratioP2;P2;SDS_P1;SDS_P2;PMS_P1;PMS_P2;Temp;Humidity;BMP_temperature;BMP_pressure;BME280_temperature;BME280_humidity;BME280_pressure;Samples;Min_cycle;Max_cycle;Signal;HPM_P1;HPM_P2
2022/03/18 00:02:26;;;;;;;13.17;5.73;;;;;;;-7.84;100.00;102061.39;1686070;85;21015;-73
2022/03/18 00:04:54;;;;;;;12.93;5.90;;;;;;;-7.89;100.00;102071.03;1685841;85;21564;-73
2022/03/18 00:07:21;;;;;;;12.53;5.73;;;;;;;-7.92;100.00;102065.33;1686031;85;21600;-73
2022/03/18 00:09:50;;;;;;;24.93;9.53;;;;;;;-7.93;100.00;102070.16;1686052;85;21054;-74
2022/03/18 00:12:18;;;;;;;15.70;5.97;;;;;;;-7.93;100.00;102075.41;1685940;85;21150;-72
2022/03/18 00:14:44;;;;;;;11.40;5.53;;;;;;;-7.94;100.00;102068.41;1674717;84;21026;-73
2022/03/18 00:17:12;;;;;;;11.23;5.77;;;;;;;-7.95;100.00;102067.98;1697670;84;21026;-73
2022/03/18 00:19:40;;;;;;;13.53;5.63;;;;;;;-7.98;100.00;102065.77;1697518;84;21236;-74
2022/03/18 00:22:07;;;;;;;12.73;5.70;;;;;;;-8.04;100.00;102067.56;1697649;84;21066;-73
2022/03/18 00:24:34;;;;;;;13.30;5.90;;;;;;;-8.09;100.00;102073.26;1697226;84;21058;-73
2022/03/18 00:27:05;;;;;;;13.80;6.03;;;;;;;-8.11;100.00;102072.80;1695350;85;21070;-73
2022/03/18 00:29:35;;;;;;;15.60;5.93;;;;;;;-8.14;100.00;102073.70;1695166;83;21097;-73
2022/03/18 00:32:02;;;;;;;12.33;6.00;;;;;;;-8.14;100.00;102075.42;1695606;85;21460;-73
2022/03/18 00:34:29;;;;;;;13.70;6.00;;;;;;;-8.18;100.00;102070.63;1695340;85;21092;-74
2022/03/18 00:36:57;;;;;;;16.13;6.40;;;;;;;-8.18;100.00;102074.56;1695220;85;21143;-74
2022/03/18 00:39:23;;;;;;;13.13;5.83;;;;;;;-8.18;100.00;102068.00;1695453;85;21112;-74
2022/03/18 00:41:51;;;;;;;11.23;6.10;;;;;;;-8.16;100.00;102078.50;1693727;85;21073;-74
2022/03/18 00:44:17;;;;;;;16.47;6.60;;;;;;;-8.16;100.00;102075.88;1679548;85;21018;-73
2022/03/18 00:46:46;;;;;;;11.93;5.60;;;;;;;-8.20;100.00;102067.13;1693727;85;21117;-72
2022/03/18 00:52:03;;;;;;;13.67;5.90;;;;;;;-8.16;100.00;102071.94;1775175;81;21045;-73
2022/03/18 00:54:27;;;;;;;12.10;6.13;;;;;;;-8.20;100.00;102071.06;1770755;81;21072;-74
2022/03/18 00:56:54;;;;;;;13.30;5.80;;;;;;;-8.24;100.00;102076.76;1774889;81;21060;-73
2022/03/18 00:59:21;;;;;;;12.33;5.90;;;;;;;-8.28;100.00;102073.71;1775106;81;21001;-73
2022/03/18 01:01:52;;;;;;;13.40;6.33;;;;;;;-8.31;100.00;102066.28;1775074;81;21456;-73
2022/03/18 01:04:16;;;;;;;15.53;6.63;;;;;;;-8.33;100.00;102070.66;1770735;81;21009;-73
2022/03/18 01:06:44;;;;;;;11.90;5.83;;;;;;;-8.33;100.00;102074.15;1765580;81;21021;-74
2022/03/18 01:09:11;;;;;;;23.77;9.30;;;;;;;-8.32;100.00;102069.77;1744505;82;20973;-73
2022/03/18 01:11:39;;;;;;;18.80;7.37;;;;;;;-8.34;100.00;102064.52;1744434;82;21072;-73
2022/03/18 01:14:06;;;;;;;13.53;5.73;;;;;;;-8.32;100.00;102064.10;1711478;84;21010;-73
2022/03/18 01:16:33;;;;;;;13.47;6.37;;;;;;;-8.31;100.00;102061.03;1733891;83;21010;-73
2022/03/18 01:18:59;;;;;;;34.07;11.93;;;;;;;-8.32;100.00;102065.83;1711579;84;21011;-73
2022/03/18 01:21:27;;;;;;;28.17;10.13;;;;;;;-8.33;100.00;102062.34;1682522;85;21111;-73
2022/03/18 01:23:54;;;;;;;18.30;8.03;;;;;;;-8.34;100.00;102061.89;1681732;85;21121;-74
2022/03/18 01:26:21;;;;;;;21.23;9.27;;;;;;;-8.35;100.00;102064.55;1692865;84;21059;-74
2022/03/18 01:28:48;;;;;;;23.93;11.87;;;;;;;-8.37;100.00;102054.45;1725443;83;21046;-73
2022/03/18 01:31:15;;;;;;;22.90;8.93;;;;;;;-8.39;100.00;102054.48;1726238;83;21075;-74
2022/03/18 01:33:42;;;;;;;17.00;7.57;;;;;;;-8.41;100.00;102054.90;1703817;84;21024;-73
2022/03/18 01:36:11;;;;;;;14.70;6.40;;;;;;;-8.45;100.00;102055.82;1726388;83;21041;-73
2022/03/18 01:38:39;;;;;;;12.60;6.90;;;;;;;-8.45;100.00;102059.31;1726589;83;21034;-73
2022/03/18 01:41:06;;;;;;;12.33;6.43;;;;;;;-8.51;100.00;102051.91;1740588;81;21491;-73
2022/03/18 01:43:44;;;;;;;14.67;7.37;;;;;;;-8.57;100.00;102055.82;1788847;80;21531;-73
2022/03/18 01:46:15;;;;;;;13.77;6.10;;;;;;;-8.63;100.00;102060.63;1789001;80;20986;-74
2022/03/18 01:48:42;;;;;;;14.43;6.47;;;;;;;-8.66;100.00;102059.31;1789026;80;21033;-73
2022/03/18 01:51:09;;;;;;;15.23;5.93;;;;;;;-8.71;100.00;102063.27;1788928;80;21502;-74
2022/03/18 01:53:38;;;;;;;13.10;6.00;;;;;;;-8.74;100.00;102066.33;1789149;80;21002;-74
2022/03/18 01:56:06;;;;;;;15.80;6.40;;;;;;;-8.77;100.00;102071.11;1789044;80;21586;-74
2022/03/18 01:58:33;;;;;;;13.03;6.03;;;;;;;-8.77;100.00;102080.73;1789274;80;21002;-73
2022/03/18 02:01:02;;;;;;;13.30;5.93;;;;;;;-8.79;100.00;102078.97;1789148;80;21077;-74
2022/03/18 02:03:29;;;;;;;12.37;5.77;;;;;;;-8.81;100.00;102082.03;1789412;80;21523;-73
2022/03/18 02:05:57;;;;;;;12.10;6.17;;;;;;;-8.80;100.00;102082.48;1788973;80;21073;-73
2022/03/18 02:08:25;;;;;;;14.00;6.20;;;;;;;-8.76;100.00;102089.92;1727174;80;21025;-73
2022/03/18 02:10:54;;;;;;;13.43;6.37;;;;;;;-8.73;100.00;102091.66;1739241;82;21073;-73
2022/03/18 02:13:22;;;;;;;11.50;6.00;;;;;;;-8.70;100.00;102098.23;1703797;84;21085;-74
2022/03/18 02:15:50;;;;;;;14.50;6.73;;;;;;;-8.68;100.00;102090.78;1726455;83;21070;-73
2022/03/18 02:18:19;;;;;;;17.57;7.80;;;;;;;-8.63;100.00;102085.55;1703991;84;21008;-73
2022/03/18 02:20:47;;;;;;;20.70;8.17;;;;;;;-8.58;100.00;102085.57;1726606;83;21054;-73
2022/03/18 02:23:14;;;;;;;16.77;7.00;;;;;;;-8.58;100.00;102075.08;1726442;83;21030;-73
2022/03/18 02:25:41;;;;;;;40.67;14.60;;;;;;;-8.60;100.00;102082.49;1703884;84;21055;-73
2022/03/18 02:28:08;;;;;;;59.33;20.33;;;;;;;-8.62;100.00;102080.76;1735216;82;21575;-73
2022/03/18 02:30:36;;;;;;;41.43;16.33;;;;;;;-8.65;100.00;102087.30;1731678;83;21046;-74
2022/03/18 02:33:04;;;;;;;63.03;23.30;;;;;;;-8.68;100.00;102091.23;1731577;83;21014;-74
2022/03/18 02:35:32;;;;;;;43.47;17.30;;;;;;;-8.71;100.00;102093.42;1731744;83;21053;-73
2022/03/18 02:38:00;;;;;;;22.43;9.30;;;;;;;-8.69;100.00;102088.16;1731712;83;21448;-73
2022/03/18 02:40:27;;;;;;;13.90;6.57;;;;;;;-8.70;100.00;102087.29;1740164;82;20989;-73
2022/03/18 02:42:54;;;;;;;19.87;8.40;;;;;;;-8.72;100.00;102095.59;1757552;81;21098;-73
2022/03/18 02:45:23;;;;;;;13.60;6.93;;;;;;;-8.72;100.00;102103.91;1757716;81;21010;-74
2022/03/18 02:47:50;;;;;;;14.53;5.93;;;;;;;-8.68;100.00;102110.90;1757473;82;21100;-74
2022/03/18 02:50:17;;;;;;;13.60;6.07;;;;;;;-8.66;100.00;102107.39;1757734;81;21069;-74
2022/03/18 02:52:45;;;;;;;15.00;5.90;;;;;;;-8.63;100.00;102105.23;1757510;82;21038;-73
2022/03/18 02:55:12;;;;;;;13.03;6.37;;;;;;;-8.62;100.00;102106.55;1757652;82;21460;-73
2022/03/18 02:57:39;;;;;;;17.17;6.70;;;;;;;-8.60;100.00;102115.28;1757380;82;21033;-73
2022/03/18 03:00:07;;;;;;;14.27;6.27;;;;;;;-8.57;100.00;102117.47;1728337;82;20999;-74
2022/03/18 03:02:36;;;;;;;14.97;6.03;;;;;;;-8.56;100.00;102110.05;1757492;81;21065;-74
2022/03/18 03:08:01;;;;;;;15.43;6.87;;;;;;;-8.52;100.00;102118.34;1760930;80;21061;-74
2022/03/18 03:10:29;;;;;;;15.50;6.53;;;;;;;-8.47;100.00;102126.66;1762021;81;21070;-73
2022/03/18 03:13:05;;;;;;;17.20;6.93;;;;;;;-8.46;100.00;102124.94;1761948;81;21081;-73
2022/03/18 03:15:33;;;;;;;16.50;6.33;;;;;;;-8.47;100.00;102117.47;1725998;83;21046;-73
2022/03/18 03:18:06;;;;;;;24.53;10.77;;;;;;;-8.43;100.00;102125.81;1725784;83;21050;-73
2022/03/18 03:20:35;;;;;;;23.70;11.27;;;;;;;-8.41;100.00;102129.27;1726119;83;21484;-73
2022/03/18 03:23:02;;;;;;;21.23;10.63;;;;;;;-8.36;100.00;102125.77;1725806;83;21054;-72
2022/03/18 03:25:29;;;;;;;31.10;11.17;;;;;;;-8.39;100.00;102138.45;1725794;83;21519;-73
2022/03/18 03:27:57;;;;;;;53.10;17.13;;;;;;;-8.39;100.00;102127.96;1728242;82;21069;-74
2022/03/18 03:30:24;;;;;;;72.93;25.40;;;;;;;-8.39;100.00;102129.27;1732862;83;21535;-73
2022/03/18 03:32:53;;;;;;;47.47;17.63;;;;;;;-8.41;100.00;102133.62;1732898;82;21559;-67
2022/03/18 03:35:20;;;;;;;49.73;14.70;;;;;;;-8.46;100.00;102136.73;1732897;83;21173;-66
2022/03/18 03:37:47;;;;;;;42.07;14.57;;;;;;;-8.51;100.00;102131.92;1732901;83;21038;-67
2022/03/18 03:40:14;;;;;;;35.70;12.00;;;;;;;-8.53;100.00;102142.41;1733818;83;21064;-67
2022/03/18 03:42:42;;;;;;;17.80;7.27;;;;;;;-8.52;100.00;102144.59;1736628;83;21061;-66
2022/03/18 03:45:10;;;;;;;33.53;10.33;;;;;;;-8.51;100.00;102148.53;1703588;84;21041;-66
2022/03/18 03:47:40;;;;;;;21.83;7.33;;;;;;;-8.54;100.00;102148.52;1675502;86;21098;-66
2022/03/18 03:50:08;;;;;;;35.57;13.67;;;;;;;-8.52;100.00;102150.70;1703605;84;21045;-67
2022/03/18 03:52:37;;;;;;;21.73;8.53;;;;;;;-8.54;100.00;102153.77;1677100;86;21075;-65
2022/03/18 03:55:05;;;;;;;16.30;7.03;;;;;;;-8.55;100.00;102159.91;1706750;84;21049;-67
2022/03/18 03:57:32;;;;;;;20.63;8.03;;;;;;;-8.53;100.00;102162.09;1677694;84;21005;-67
2022/03/18 03:59:59;;;;;;;13.03;6.17;;;;;;;-8.50;100.00;102170.38;1703630;84;21085;-67
2022/03/18 04:02:29;;;;;;;14.23;6.30;;;;;;;-8.47;100.00;102179.13;1675611;86;21661;-67
2022/03/18 04:07:25;;;;;;;12.80;6.47;;;;;;;-8.55;100.00;102191.38;1640089;86;21048;-67
2022/03/18 04:09:54;;;;;;;15.37;6.77;;;;;;;-8.61;100.00;102201.84;1632939;88;21094;-66
2022/03/18 04:12:22;;;;;;;16.60;6.97;;;;;;;-8.64;100.00;102198.80;1641906;87;21088;-67
2022/03/18 04:14:51;;;;;;;17.90;6.80;;;;;;;-8.63;100.00;102199.66;1674774;84;21069;-67
2022/03/18 04:17:18;;;;;;;18.97;7.73;;;;;;;-8.62;100.00;102202.73;1676613;86;21085;-67
2022/03/18 04:19:44;;;;;;;18.73;6.50;;;;;;;-8.61;100.00;102205.33;1676711;86;21119;-67
2022/03/18 04:22:11;;;;;;;11.40;5.73;;;;;;;-8.55;100.00;102195.31;1676651;86;21065;-67
2022/03/18 04:24:38;;;;;;;22.80;7.50;;;;;;;-8.55;100.00;102200.56;1676658;86;21049;-67
2022/03/18 04:27:05;;;;;;;15.43;6.10;;;;;;;-8.60;100.00;102201.85;1676619;84;21061;-66
2022/03/18 04:29:32;;;;;;;16.53;6.50;;;;;;;-8.58;100.00;102201.00;1670639;84;21078;-67
2022/03/18 04:31:59;;;;;;;16.30;7.07;;;;;;;-8.64;100.00;102207.97;1669977;86;21034;-67
2022/03/18 04:34:26;;;;;;;16.30;7.00;;;;;;;-8.68;100.00;102213.20;1669857;86;21054;-68
2022/03/18 04:36:53;;;;;;;13.93;6.93;;;;;;;-8.65;100.00;102210.14;1669951;86;21070;-67
2022/03/18 04:39:19;;;;;;;13.43;6.10;;;;;;;-8.60;100.00;102207.09;1669889;86;21034;-67
2022/03/18 04:41:47;;;;;;;12.40;5.87;;;;;;;-8.56;100.00;102214.98;1695993;84;21075;-67
2022/03/18 04:44:14;;;;;;;14.83;6.23;;;;;;;-8.54;100.00;102218.48;1699690;84;21497;-67
2022/03/18 04:46:40;;;;;;;12.53;6.03;;;;;;;-8.52;100.00;102233.34;1699690;84;21098;-66
2022/03/18 04:49:07;;;;;;;12.90;5.87;;;;;;;-8.49;100.00;102226.80;1699640;84;21111;-67
2022/03/18 04:51:34;;;;;;;14.33;6.40;;;;;;;-8.47;100.00;102234.23;1699693;84;21099;-66
2022/03/18 04:54:01;;;;;;;12.80;6.17;;;;;;;-8.51;100.00;102225.92;1699598;84;21106;-67
2022/03/18 04:59:12;;;;;;;16.17;6.67;;;;;;;-8.47;100.00;102231.61;1699700;84;21055;-66
2022/03/18 05:01:40;;;;;;;15.80;6.50;;;;;;;-8.38;100.00;102229.41;1699744;84;21114;-67
2022/03/18 05:04:06;;;;;;;15.17;6.77;;;;;;;-8.30;100.00;102225.06;1729985;81;21057;-66
2022/03/18 05:06:33;;;;;;;16.27;6.73;;;;;;;-8.24;100.00;102230.75;1746646;81;21057;-67
2022/03/18 05:09:02;;;;;;;15.33;6.37;;;;;;;-8.19;100.00;102221.14;1705172;84;21096;-67
2022/03/18 05:11:30;;;;;;;13.83;6.20;;;;;;;-8.16;100.00;102227.72;1740559;82;21088;-67
2022/03/18 05:13:57;;;;;;;15.03;5.70;;;;;;;-8.08;100.00;102234.27;1740561;82;21064;-67
2022/03/18 05:16:25;;;;;;;15.00;6.37;;;;;;;-8.04;100.00;102235.61;1709348;82;21048;-67
2022/03/18 05:18:53;;;;;;;14.70;6.90;;;;;;;-8.02;100.00;102243.45;1707316;84;21022;-67
2022/03/18 05:21:20;;;;;;;16.87;6.50;;;;;;;-7.95;100.00;102243.92;1740435;82;21361;-66
2022/03/18 05:23:48;;;;;;;12.83;5.80;;;;;;;-7.92;100.00;102249.60;1707308;84;21057;-67
2022/03/18 05:26:16;;;;;;;15.53;6.40;;;;;;;-8.04;100.00;102255.30;1740726;82;21049;-67
2022/03/18 05:28:43;;;;;;;11.90;5.63;;;;;;;-8.12;100.00;102256.16;1703957;83;21544;-67
2022/03/18 05:31:10;;;;;;;16.80;5.80;;;;;;;-8.15;100.00;102254.83;1699811;84;21062;-66
2022/03/18 05:33:38;;;;;;;15.27;6.93;;;;;;;-8.12;100.00;102266.66;1699768;84;21039;-66
2022/03/18 05:36:06;;;;;;;17.37;7.10;;;;;;;-8.06;100.00;102269.28;1699785;84;21035;-66
2022/03/18 05:38:33;;;;;;;15.57;5.70;;;;;;;-8.01;100.00;102271.48;1700008;84;21012;-67
2022/03/18 05:41:00;;;;;;;14.80;5.87;;;;;;;-8.02;100.00;102273.65;1719280;83;21101;-66
2022/03/18 05:43:26;;;;;;;16.43;6.03;;;;;;;-8.08;100.00;102282.84;1734428;83;21054;-66
2022/03/18 05:45:53;;;;;;;17.47;7.83;;;;;;;-8.11;100.00;102286.77;1771184;81;21434;-67
2022/03/18 05:48:20;;;;;;;15.03;5.70;;;;;;;-8.11;100.00;102302.52;1771114;81;21125;-66
2022/03/18 05:50:47;;;;;;;15.87;6.43;;;;;;;-8.14;100.00;102307.34;1771000;81;21059;-67
2022/03/18 05:53:14;;;;;;;15.33;5.80;;;;;;;-8.16;100.00;102303.84;1771021;81;21050;-67
2022/03/18 05:58:26;;;;;;;12.50;5.83;;;;;;;-8.21;100.00;102329.20;1766861;81;21082;-67
2022/03/18 06:00:53;;;;;;;14.70;6.40;;;;;;;-8.17;100.00;102323.08;1770961;81;21010;-68
2022/03/18 06:03:22;;;;;;;13.60;5.80;;;;;;;-8.16;100.00;102326.57;1771035;81;21011;-67
2022/03/18 06:05:48;;;;;;;13.73;5.50;;;;;;;-8.12;100.00;102332.30;1771467;81;21533;-65
2022/03/18 06:13:47;;;;;;;16.83;7.20;;;;;;;-8.03;100.00;102344.12;1771375;81;21531;-65
2022/03/18 06:16:15;;;;;;;13.23;6.50;;;;;;;-7.98;100.00;102336.23;1771579;81;21044;-65
2022/03/18 06:18:42;;;;;;;16.00;6.70;;;;;;;-7.92;100.00;102341.52;1771547;81;21448;-66
2022/03/18 06:21:08;;;;;;;16.43;6.03;;;;;;;-7.82;100.00;102345.48;1771152;81;21037;-67
2022/03/18 06:23:36;;;;;;;12.10;6.13;;;;;;;-7.67;100.00;102340.67;1771575;81;21017;-67
2022/03/18 06:26:04;;;;;;;23.30;9.43;;;;;;;-7.50;100.00;102349.89;1771661;81;21092;-68
2022/03/18 06:28:34;;;;;;;19.70;8.87;;;;;;;-7.36;100.00;102351.66;1772597;79;21112;-67
2022/03/18 06:31:01;;;;;;;16.63;6.00;;;;;;;-7.14;100.00;102343.31;1776116;81;21490;-67
2022/03/18 06:33:27;;;;;;;14.37;6.10;;;;;;;-6.98;100.00;102335.83;1776170;81;21056;-69
2022/03/18 06:35:54;;;;;;;13.60;6.30;;;;;;;-6.92;100.00;102345.48;1776352;81;21081;-70
2022/03/18 06:38:21;;;;;;;18.10;7.07;;;;;;;-6.91;100.00;102352.03;1776594;81;21486;-70
2022/03/18 06:40:49;;;;;;;15.10;6.70;;;;;;;-6.80;100.00;102349.82;1772736;80;21532;-68
2022/03/18 06:43:16;;;;;;;13.87;6.20;;;;;;;-6.68;100.00;102355.92;1764852;81;21464;-70
2022/03/18 06:45:44;;;;;;;13.90;6.00;;;;;;;-6.51;100.00;102354.56;1768966;81;21023;-68
2022/03/18 06:48:11;;;;;;;13.60;6.63;;;;;;;-6.42;100.00;102354.11;1770601;81;21560;-69
2022/03/18 06:50:39;;;;;;;16.23;7.00;;;;;;;-6.50;100.00;102356.33;1770349;79;21130;-69
2022/03/18 06:53:07;;;;;;;13.87;6.43;;;;;;;-6.53;100.00;102362.91;1770448;81;21022;-67
2022/03/18 06:55:33;;;;;;;15.73;6.57;;;;;;;-6.37;100.00;102371.63;1763502;81;21069;-69
2022/03/18 06:58:01;;;;;;;16.70;6.80;;;;;;;-6.22;100.00;102363.23;1770425;81;21074;-68
2022/03/18 07:00:28;;;;;;;16.70;6.40;;;;;;;-6.03;100.00;102367.53;1770714;81;21085;-70
2022/03/18 07:02:54;;;;;;;16.63;6.50;;;;;;;-5.91;100.00;102366.56;1769864;81;21476;-68
2022/03/18 07:05:21;;;;;;;16.50;6.53;;;;;;;-5.88;100.00;102370.47;1738668;82;21035;-70
2022/03/18 07:07:48;;;;;;;15.90;6.37;;;;;;;-5.80;100.00;102380.53;1738308;81;21030;-68
2022/03/18 07:10:16;;;;;;;19.07;7.47;;;;;;;-5.66;100.00;102380.91;1738340;81;21055;-69
2022/03/18 07:12:45;;;;;;;14.80;6.50;;;;;;;-5.55;100.00;102388.29;1743983;81;21516;-68
2022/03/18 07:15:12;;;;;;;14.43;6.50;;;;;;;-5.42;100.00;102392.61;1770286;81;21111;-68
2022/03/18 07:20:28;;;;;;;15.77;6.33;;;;;;;-5.07;100.00;102399.34;1770565;80;21038;-68
2022/03/18 07:23:14;;;;;;;14.93;6.30;;;;;;;-5.02;100.00;102399.31;1721210;82;20979;-68
2022/03/18 07:25:48;;;;;;;15.33;6.10;;;;;;;-5.00;100.00;102409.41;1721193;83;21500;-68
2022/03/18 07:28:16;;;;;;;14.13;6.43;;;;;;;-4.91;100.00;102410.64;1722985;80;21062;-68
2022/03/18 07:30:44;;;;;;;16.50;7.20;;;;;;;-4.83;100.00;102419.38;1761469;81;21558;-69
2022/03/18 07:33:12;;;;;;;16.17;6.23;;;;;;;-4.73;100.00;102415.31;1761451;81;21557;-69
2022/03/18 07:35:39;;;;;;;12.77;6.10;;;;;;;-4.67;100.00;102424.52;1761670;81;21050;-67
2022/03/18 07:38:09;;;;;;;13.07;5.83;;;;;;;-4.63;100.00;102421.80;1761523;81;21484;-70
2022/03/18 07:40:38;;;;;;;16.17;6.23;;;;;;;-4.67;100.00;102418.78;1749917;81;20998;-67
2022/03/18 07:43:06;;;;;;;16.80;7.20;;;;;;;-4.64;100.00;102423.14;1664903;86;21110;-69
2022/03/18 07:45:35;;;;;;;20.37;7.57;;;;;;;-4.46;100.00;102422.07;1664893;86;21054;-67
2022/03/18 07:48:05;;;;;;;18.07;6.83;;;;;;;-4.24;100.00;102417.44;1664840;86;21062;-68
2022/03/18 07:50:34;;;;;;;14.83;6.47;;;;;;;-4.09;100.00;102419.91;1664961;86;21140;-67
2022/03/18 07:53:05;;;;;;;14.93;6.80;;;;;;;-4.07;100.00;102421.18;1664575;86;21588;-68
2022/03/18 07:55:36;;;;;;;19.07;7.20;;;;;;;-3.91;100.00;102423.19;1664687;86;21065;-66
2022/03/18 07:58:03;;;;;;;17.23;7.17;;;;;;;-3.83;100.00;102427.94;1664958;85;21062;-67
2022/03/18 08:00:31;;;;;;;14.83;6.27;;;;;;;-3.62;100.00;102417.52;1664793;86;21202;-67
2022/03/18 08:03:00;;;;;;;16.60;6.43;;;;;;;-3.30;100.00;102414.38;1665038;86;21090;-69
2022/03/18 08:05:26;;;;;;;17.67;6.30;;;;;;;-3.18;100.00;102418.62;1665113;86;21019;-68
2022/03/18 08:07:53;;;;;;;19.20;7.03;;;;;;;-3.21;100.00;102424.41;1665093;86;21520;-67
2022/03/18 08:10:20;;;;;;;17.63;7.47;;;;;;;-3.42;100.00;102428.25;1665030;86;21081;-71
2022/03/18 08:12:47;;;;;;;19.10;8.23;;;;;;;-3.48;100.00;102429.22;1665087;86;21054;-68
2022/03/18 08:15:15;;;;;;;17.37;7.67;;;;;;;-3.41;100.00;102428.69;1636149;86;21545;-68
2022/03/18 08:17:44;;;;;;;16.83;6.90;;;;;;;-3.38;100.00;102429.95;1664968;86;21118;-68
2022/03/18 08:20:13;;;;;;;19.27;8.60;;;;;;;-3.33;100.00;102425.47;1649945;86;21076;-68
2022/03/18 08:22:40;;;;;;;26.03;12.87;;;;;;;-3.27;100.00;102428.89;1644207;86;21345;-69
2022/03/18 08:25:09;;;;;;;27.13;10.87;;;;;;;-3.09;100.00;102424.22;1643900;87;21092;-68
2022/03/18 08:27:37;;;;;;;17.70;7.70;;;;;;;-2.92;100.00;102427.89;1644182;87;21025;-69
2022/03/18 08:30:07;;;;;;;22.93;8.80;;;;;;;-2.76;100.00;102422.77;1677949;85;21128;-68
2022/03/18 08:32:35;;;;;;;14.60;6.50;;;;;;;-2.65;100.00;102425.23;1691688;85;21595;-68
2022/03/18 08:35:02;;;;;;;23.27;7.87;;;;;;;-2.56;100.00;102429.02;1691453;85;20982;-69
2022/03/18 08:40:17;;;;;;;15.17;6.60;;;;;;;-2.79;100.00;102429.44;1723950;80;21510;-67
2022/03/18 08:42:44;;;;;;;15.67;8.00;;;;;;;-3.00;100.00;102441.72;1794848;80;21574;-69
2022/03/18 08:45:11;;;;;;;15.73;7.70;;;;;;;-3.06;100.00;102444.89;1795124;80;21032;-66
2022/03/18 08:47:38;;;;;;;21.17;9.93;;;;;;;-2.92;100.00;102438.05;1795135;80;20983;-68
2022/03/18 08:50:07;;;;;;;12.93;6.03;;;;;;;-2.61;100.00;102433.98;1795148;80;21085;-66
2022/03/18 08:52:34;;;;;;;13.97;5.47;;;;;;;-2.37;100.00;102436.19;1796099;80;21053;-66
2022/03/18 08:55:01;;;;;;;11.53;6.07;;;;;;;-2.42;100.00;102432.75;1796217;80;21045;-66
2022/03/18 08:57:28;;;;;;;14.03;6.50;;;;;;;-2.34;100.00;102432.59;1794825;80;21057;-67
2022/03/18 08:59:56;;;;;;;13.20;5.60;;;;;;;-2.21;100.00;102438.09;1794887;80;21022;-67
2022/03/18 09:02:23;;;;;;;14.33;5.77;;;;;;;-2.17;100.00;102445.53;1794770;80;21515;-68
2022/03/18 09:04:51;;;;;;;16.87;6.70;;;;;;;-2.29;100.00;102442.66;1794761;80;21013;-67
2022/03/18 09:07:19;;;;;;;17.40;6.27;;;;;;;-2.39;100.00;102441.97;1773509;80;21058;-68
2022/03/18 09:09:46;;;;;;;8.60;4.87;;;;;;;-2.37;100.00;102444.59;1755129;82;21042;-68
2022/03/18 09:12:18;;;;;;;26.67;8.77;;;;;;;-2.27;100.00;102439.98;1754814;82;21050;-67
2022/03/18 09:17:14;;;;;;;23.23;10.37;;;;;;;-2.09;100.00;102447.55;1704600;84;21075;-69
2022/03/18 09:19:42;;;;;;;23.47;9.63;;;;;;;-1.99;100.00;102443.81;1704963;84;21608;-68
2022/03/18 09:22:16;;;;;;;12.80;5.37;;;;;;;-1.72;100.00;102451.67;1704823;84;21090;-67
2022/03/18 09:24:41;;;;;;;11.90;5.23;;;;;;;-1.55;100.00;102444.64;1704970;84;21094;-67
2022/03/18 09:27:09;;;;;;;13.77;5.93;;;;;;;-1.56;100.00;102446.90;1704791;83;21568;-67
2022/03/18 09:29:37;;;;;;;14.87;6.40;;;;;;;-1.55;100.00;102447.30;1703725;84;21153;-67
2022/03/18 09:32:06;;;;;;;11.13;5.70;;;;;;;-1.55;100.00;102441.99;1702400;84;21055;-66
2022/03/18 09:34:34;;;;;;;9.87;5.17;;;;;;;-1.67;100.00;102454.20;1702490;84;21560;-69
2022/03/18 09:37:02;;;;;;;11.70;5.17;;;;;;;-1.80;100.00;102454.92;1701903;84;21118;-67
2022/03/18 09:39:30;;;;;;;10.57;5.30;;;;;;;-1.72;100.00;102451.67;1702369;84;21146;-66
2022/03/18 09:41:57;;;;;;;13.80;4.80;;;;;;;-1.70;100.00;102449.41;1742621;82;21057;-65
2022/03/18 09:44:23;;;;;;;13.00;5.27;;;;;;;-1.68;100.00;102450.25;1712474;83;21077;-66
2022/03/18 09:46:51;;;;;;;14.13;5.73;;;;;;;-1.50;100.00;102443.69;1711995;84;21116;-67
2022/03/18 09:49:19;;;;;;;19.17;7.80;;;;;;;-1.29;100.00;102446.28;1712350;84;21136;-67
2022/03/18 09:51:47;;;;;;;16.53;7.20;;;;;;;-0.94;100.00;102438.80;1711858;84;21096;-66
2022/03/18 09:54:16;;;;;;;20.27;9.30;;;;;;;-0.51;100.00;102435.48;1712024;84;21100;-67
2022/03/18 09:56:45;;;;;;;12.47;5.53;;;;;;;0.06;100.00;102440.58;1712052;83;21578;-67
2022/03/18 09:59:12;;;;;;;11.00;5.53;;;;;;;0.50;100.00;102443.70;1712267;84;21084;-65
2022/03/18 10:01:39;;;;;;;15.67;5.90;;;;;;;0.44;100.00;102444.73;1712401;84;21060;-66
2022/03/18 10:04:10;;;;;;;17.37;7.27;;;;;;;0.26;100.00;102442.64;1712365;84;21014;-67
2022/03/18 10:06:38;;;;;;;13.13;6.50;;;;;;;0.23;100.00;102446.28;1712510;84;21564;-67
2022/03/18 10:09:05;;;;;;;13.93;5.80;;;;;;;0.22;100.00;102451.64;1712196;84;21066;-67
2022/03/18 10:11:36;;;;;;;16.17;8.20;;;;;;;0.03;100.00;102454.81;1712423;84;21560;-68
2022/03/18 10:14:07;;;;;;;21.07;8.03;;;;;;;-0.07;100.00;102458.22;1712314;84;21074;-67
2022/03/18 10:16:44;;;;;;;16.67;6.75;;;;;;;0.03;100.00;102444.17;1712352;84;21552;-66
2022/03/18 10:19:18;;;;;;;16.30;7.73;;;;;;;0.17;100.00;102440.66;1711945;84;21050;-68
2022/03/18 10:21:59;;;;;;;11.80;5.80;;;;;;;0.14;100.00;102447.42;1679577;85;20989;-68
2022/03/18 10:24:34;;;;;;;12.63;5.80;;;;;;;0.06;100.00;102450.75;1679493;85;21089;-68
2022/03/18 10:27:23;;;;;;;17.30;5.53;;;;;;;-0.26;100.00;102455.19;1679758;85;21101;-68
2022/03/18 10:29:53;;;;;;;13.10;6.13;;;;;;;-0.60;100.00;102449.91;1675772;85;21053;-67
2022/03/18 10:32:24;;;;;;;16.50;7.23;;;;;;;-0.56;100.00;102441.41;1670304;86;21061;-69
2022/03/18 10:37:54;;;;;;;11.27;4.87;;;;;;;-0.46;100.00;102445.11;1641655;87;21083;-67
2022/03/18 10:40:35;;;;;;;14.40;5.47;;;;;;;-0.43;100.00;102441.01;1644636;87;21082;-68
2022/03/18 10:43:04;;;;;;;20.03;8.27;;;;;;;-0.46;100.00;102437.56;1650369;87;21078;-67
2022/03/18 10:45:31;;;;;;;14.10;5.37;;;;;;;-0.35;100.00;102440.83;1650729;86;21118;-67
2022/03/18 10:48:15;;;;;;;10.50;5.00;;;;;;;-0.08;100.00;102435.18;1650544;87;21102;-67
2022/03/18 10:50:41;;;;;;;9.97;4.90;;;;;;;0.06;100.00;102433.45;1650502;87;21125;-67
2022/03/18 10:53:11;;;;;;;13.07;5.90;;;;;;;0.05;100.00;102440.14;1650687;87;21102;-67
2022/03/18 10:55:45;;;;;;;24.53;10.63;;;;;;;-0.20;100.00;102443.03;1650434;87;21039;-67
2022/03/18 10:58:15;;;;;;;22.32;9.55;;;;;;;-0.57;100.00;102437.85;1649885;87;21078;-67
2022/03/18 11:00:51;;;;;;;23.97;8.40;;;;;;;-0.52;100.00;102433.75;1649789;87;21066;-68
2022/03/18 11:03:19;;;;;;;11.37;5.50;;;;;;;-0.26;100.00;102432.59;1650949;87;21043;-66
2022/03/18 11:05:49;;;;;;;15.87;5.37;;;;;;;-0.31;100.00;102431.84;1628665;87;21137;-67
2022/03/18 11:08:23;;;;;;;16.63;6.20;;;;;;;-0.59;100.00;102434.37;1648333;86;21072;-66
2022/03/18 11:11:07;;;;;;;10.93;4.57;;;;;;;-0.74;100.00;102442.30;1649266;87;21145;-68
2022/03/18 11:13:51;;;;;;;11.43;5.23;;;;;;;-0.85;100.00;102436.36;1649389;87;21061;-67
2022/03/18 11:16:25;;;;;;;21.37;8.87;;;;;;;-1.09;100.00;102436.54;1649246;87;21557;-67
2022/03/18 11:18:52;;;;;;;19.17;7.78;;;;;;;-1.19;100.00;102434.55;1681552;84;21029;-70
2022/03/18 11:21:21;;;;;;;14.37;5.30;;;;;;;-1.03;100.00;102434.58;1681336;85;21136;-67
2022/03/18 11:23:49;;;;;;;13.40;5.70;;;;;;;-0.78;100.00;102428.66;1681524;85;21021;-68
2022/03/18 11:26:18;;;;;;;15.13;7.47;;;;;;;-0.63;100.00;102426.94;1681808;85;21041;-69
2022/03/18 11:28:46;;;;;;;16.27;7.50;;;;;;;-0.30;100.00;102428.71;1681612;85;21527;-68
2022/03/18 11:31:18;;;;;;;9.77;4.80;;;;;;;-0.02;100.00;102427.48;1666326;84;21062;-68
2022/03/18 11:34:09;;;;;;;8.27;4.00;;;;;;;-0.07;100.00;102438.70;1664808;86;21089;-67
2022/03/18 11:36:40;;;;;;;14.00;6.33;;;;;;;-0.43;100.00;102431.70;1580242;89;21072;-68
2022/03/18 11:39:08;;;;;;;35.40;19.70;;;;;;;-0.67;100.00;102423.95;1594667;90;21043;-69
2022/03/18 11:41:55;;;;;;;9.03;4.50;;;;;;;-0.56;100.00;102423.66;1638913;87;21096;-68
2022/03/18 11:44:43;;;;;;;9.57;4.80;;;;;;;-0.24;100.00;102424.10;1638788;87;21082;-68
2022/03/18 11:47:31;;;;;;;8.23;4.17;;;;;;;0.05;100.00;102425.52;1638598;87;21123;-68